Alpnach Air Base

Airport
ICAO code: 
LSMA
Summary
ICAO Region: 
EUR
Territory: 
Location: 
Alpnach, Obwalden
Serving: 
Alpnach
Elevation: 
1460 ft
Coordinates: 
Aerial View: 
46° 56' 38" N, 8° 17' 3.001" E
Metar
Observation
LSMA 171520Z 06008KT CAVOK 05/00 Q1035 RMK BLU
Station
ALPNACH
Date/Time
2022-01-17 15:20:00
Wind direction
60°
Wind speed
08 kts
Lowest cloud amount
clouds and visibility OK
Temperature
5°C
Dew point
0°C
Humidity
70%
QNH
1035 hPa
Weather condition
n/a

Military airbase outside Alpnach, Switzerland.

Climatology

Humid continental climate (Köppen climate classification Dfb)

Runways

Designator Length Width Surface Rops
1/19 1500 40 ASP No/No
Airport map: 
Aerial View: 

SKYbrary Partners:

Safety knowledge contributed by: